Time;durP1;ratioP1;P1;durP2;ratioP2;P2;SDS_P1;SDS_P2;PMS_P1;PMS_P2;Temp;Humidity;BMP_temperature;BMP_pressure;BME280_temperature;BME280_humidity;BME280_pressure;Samples;Min_cycle;Max_cycle;Signal;HPM_P1;HPM_P2
2022/03/02 00:00:13;;;;;;;4.82;3.08;;;-1.60;99.90;;;;;;5085991;28;20217;-68
2022/03/02 00:02:39;;;;;;;7.43;2.78;;;-1.70;99.90;;;;;;5090736;28;20216;-67
2022/03/02 00:05:07;;;;;;;7.38;2.70;;;-1.80;99.90;;;;;;5086769;28;20171;-68
2022/03/02 00:07:33;;;;;;;5.28;3.03;;;-1.90;99.90;;;;;;5070692;28;20220;-68
2022/03/02 00:09:59;;;;;;;5.82;2.65;;;-2.10;99.90;;;;;;5070582;28;20152;-68
2022/03/02 00:12:25;;;;;;;6.25;2.90;;;-2.30;99.90;;;;;;5070689;28;20179;-68
2022/03/02 00:14:50;;;;;;;4.55;2.25;;;-2.50;99.90;;;;;;5070576;28;20160;-69
2022/03/02 00:17:16;;;;;;;6.40;2.58;;;-2.20;99.90;;;;;;5070590;28;20165;-69
2022/03/02 00:19:43;;;;;;;4.05;2.05;;;-2.00;99.90;;;;;;5070592;28;20180;-68
2022/03/02 00:22:10;;;;;;;4.78;2.45;;;-1.70;99.90;;;;;;5068260;28;20228;-68
2022/03/02 00:24:36;;;;;;;7.03;2.40;;;-1.90;99.90;;;;;;5083984;28;20235;-70
2022/03/02 00:27:02;;;;;;;5.53;3.20;;;-2.10;99.90;;;;;;5090317;28;20652;-68
2022/03/02 00:29:28;;;;;;;5.40;3.20;;;-2.10;99.90;;;;;;5090337;28;20156;-69
2022/03/02 00:31:54;;;;;;;6.25;3.08;;;-2.20;99.90;;;;;;5088960;28;20225;-68
2022/03/02 00:34:20;;;;;;;4.13;2.55;;;-2.40;99.90;;;;;;5090385;28;20243;-69
2022/03/02 00:36:46;;;;;;;9.50;3.55;;;-2.60;99.90;;;;;;5090228;28;20164;-69
2022/03/02 00:39:13;;;;;;;8.13;3.58;;;-2.70;99.90;;;;;;5090119;28;20164;-69
2022/03/02 00:41:39;;;;;;;7.18;2.95;;;-2.80;99.90;;;;;;5088827;28;20206;-69
2022/03/02 00:44:05;;;;;;;5.82;3.83;;;-2.80;99.90;;;;;;5079053;28;20173;-69
2022/03/02 00:46:31;;;;;;;8.32;3.85;;;-2.80;99.90;;;;;;5069967;28;20192;-69
2022/03/02 00:49:03;;;;;;;15.82;4.57;;;-2.80;99.90;;;;;;5068730;28;20218;-69
2022/03/02 00:51:29;;;;;;;13.02;4.15;;;-2.90;99.90;;;;;;5069856;28;20188;-69
2022/03/02 00:53:56;;;;;;;12.38;4.97;;;-2.90;99.90;;;;;;5068580;28;20176;-69
2022/03/02 00:56:22;;;;;;;10.07;4.35;;;-2.90;99.90;;;;;;5069839;28;20161;-69
2022/03/02 00:58:49;;;;;;;11.27;4.68;;;-2.90;99.90;;;;;;5069850;28;20225;-69
2022/03/02 01:01:16;;;;;;;10.80;4.35;;;-3.00;99.90;;;;;;5083574;28;20212;-69
2022/03/02 01:03:41;;;;;;;7.65;3.80;;;-3.10;99.90;;;;;;5089556;28;20240;-69
2022/03/02 01:06:08;;;;;;;10.68;4.32;;;-3.20;99.90;;;;;;5076763;28;20199;-68
2022/03/02 01:08:34;;;;;;;9.07;4.43;;;-3.30;99.90;;;;;;5069547;28;20192;-69
2022/03/02 01:11:02;;;;;;;10.57;4.97;;;-3.30;99.90;;;;;;5069403;28;20220;-69
2022/03/02 01:13:28;;;;;;;12.80;5.10;;;-3.40;99.90;;;;;;5069531;28;20157;-69
2022/03/02 01:15:54;;;;;;;10.98;4.97;;;-3.40;99.90;;;;;;5069546;28;20157;-69
2022/03/02 01:18:20;;;;;;;11.88;4.90;;;-3.50;99.90;;;;;;5068259;28;20265;-69
2022/03/02 01:20:46;;;;;;;9.43;4.70;;;-3.50;99.90;;;;;;5068063;28;20196;-69
2022/03/02 01:23:12;;;;;;;11.15;4.72;;;-3.70;99.90;;;;;;5069440;28;20160;-70
2022/03/02 01:25:38;;;;;;;11.85;4.75;;;-3.80;99.90;;;;;;5069202;28;20247;-69
2022/03/02 01:28:04;;;;;;;8.23;4.78;;;-4.00;99.90;;;;;;5068035;28;20193;-69
2022/03/02 01:30:30;;;;;;;9.13;5.55;;;-4.20;99.90;;;;;;5067859;28;20219;-69
2022/03/02 01:32:56;;;;;;;13.05;4.75;;;-4.30;99.90;;;;;;5069257;28;20188;-70
2022/03/02 01:35:22;;;;;;;8.02;4.60;;;-4.40;99.90;;;;;;5068102;28;20176;-70
2022/03/02 01:37:50;;;;;;;11.85;4.63;;;-4.40;99.90;;;;;;5067868;28;20164;-70
2022/03/02 01:40:17;;;;;;;14.70;5.35;;;-4.50;99.90;;;;;;5069004;28;20192;-69
2022/03/02 01:42:44;;;;;;;9.50;4.38;;;-4.50;99.90;;;;;;5067815;28;20169;-70
2022/03/02 01:45:12;;;;;;;18.38;5.07;;;-4.50;99.90;;;;;;5069089;28;20221;-70
2022/03/02 01:47:39;;;;;;;10.15;5.15;;;-4.50;99.90;;;;;;5069043;28;20188;-70
2022/03/02 01:50:09;;;;;;;8.57;4.57;;;-4.60;99.90;;;;;;5068983;28;20164;-70
2022/03/02 01:52:35;;;;;;;12.90;4.57;;;-4.60;99.90;;;;;;5068970;28;20156;-70
2022/03/02 01:55:01;;;;;;;10.20;4.88;;;-4.70;99.90;;;;;;5069011;28;20580;-70
2022/03/02 01:57:27;;;;;;;11.50;5.57;;;-4.70;99.90;;;;;;5068982;28;20239;-69
2022/03/02 01:59:54;;;;;;;9.20;4.80;;;-4.60;99.90;;;;;;5079789;28;20176;-69
2022/03/02 02:02:20;;;;;;;15.20;5.68;;;-4.50;99.90;;;;;;5089089;28;20685;-70
2022/03/02 02:04:46;;;;;;;11.07;6.88;;;-4.50;99.90;;;;;;5087377;28;20164;-69
2022/03/02 02:07:12;;;;;;;17.48;5.75;;;-4.50;99.90;;;;;;5068882;28;20214;-70
2022/03/02 02:09:38;;;;;;;11.73;5.93;;;-4.40;99.90;;;;;;5068908;28;20164;-69
2022/03/02 02:12:04;;;;;;;15.75;5.35;;;-4.50;99.90;;;;;;5068676;28;20293;-69
2022/03/02 02:14:30;;;;;;;9.50;5.00;;;-4.50;99.90;;;;;;5068831;28;20244;-70
2022/03/02 02:16:56;;;;;;;8.70;4.80;;;-4.70;99.90;;;;;;5068856;28;20161;-70
2022/03/02 02:19:22;;;;;;;16.02;6.25;;;-4.70;99.90;;;;;;5068740;28;20161;-70
2022/03/02 02:21:49;;;;;;;8.23;5.32;;;-4.80;99.90;;;;;;5067329;28;20264;-69
2022/03/02 02:24:16;;;;;;;11.27;5.70;;;-4.90;99.90;;;;;;5068584;28;20234;-70
2022/03/02 02:26:42;;;;;;;12.63;4.97;;;-5.00;99.90;;;;;;5068593;28;20560;-69
2022/03/02 02:29:12;;;;;;;9.90;5.15;;;-5.10;99.90;;;;;;5068576;28;20214;-69
2022/03/02 02:31:38;;;;;;;19.35;6.43;;;-5.10;99.90;;;;;;5068464;28;20224;-70
2022/03/02 02:34:03;;;;;;;9.88;4.57;;;-5.10;99.90;;;;;;5068580;28;20196;-70
2022/03/02 02:36:29;;;;;;;7.88;5.35;;;-5.20;99.90;;;;;;5080249;28;20547;-68
2022/03/02 02:38:55;;;;;;;21.83;4.88;;;-5.30;99.90;;;;;;5088691;28;20655;-68
2022/03/02 02:41:21;;;;;;;10.32;4.68;;;-5.30;99.90;;;;;;5088479;28;20188;-70
2022/03/02 02:43:47;;;;;;;14.38;4.68;;;-5.30;99.90;;;;;;5087169;28;20168;-69
2022/03/02 02:46:14;;;;;;;13.95;5.47;;;-5.40;99.90;;;;;;5092053;28;20251;-70
2022/03/02 02:48:40;;;;;;;9.82;4.53;;;-5.40;99.90;;;;;;5092368;28;20157;-67
2022/03/02 02:51:07;;;;;;;10.80;5.95;;;-5.50;99.90;;;;;;5080852;28;20199;-70
2022/03/02 02:53:34;;;;;;;12.57;6.32;;;-5.40;99.90;;;;;;5072177;28;20168;-67
2022/03/02 02:56:00;;;;;;;13.57;5.40;;;-5.50;99.90;;;;;;5070933;28;20239;-69
2022/03/02 02:58:27;;;;;;;11.77;6.30;;;-5.60;99.90;;;;;;5072059;28;20519;-70
2022/03/02 03:00:52;;;;;;;8.55;5.47;;;-5.60;99.90;;;;;;5084500;28;20202;-69
2022/03/02 03:03:19;;;;;;;9.00;4.82;;;-5.40;99.90;;;;;;5091858;28;20219;-69
2022/03/02 03:05:45;;;;;;;10.35;5.22;;;-5.40;99.90;;;;;;5081051;28;20187;-69
2022/03/02 03:08:13;;;;;;;12.77;4.57;;;-5.40;99.90;;;;;;5071822;28;20188;-69
2022/03/02 03:10:41;;;;;;;14.02;5.65;;;-5.40;99.90;;;;;;5071700;28;20185;-70
2022/03/02 03:13:08;;;;;;;12.38;5.30;;;-5.50;99.90;;;;;;5071752;28;20179;-69
2022/03/02 03:15:35;;;;;;;20.23;6.53;;;-5.60;99.90;;;;;;5071782;28;20203;-70
2022/03/02 03:18:02;;;;;;;10.60;4.45;;;-5.70;99.90;;;;;;5070461;28;20198;-69
2022/03/02 03:20:29;;;;;;;11.43;6.32;;;-5.80;99.90;;;;;;5071670;28;20207;-70
2022/03/02 03:22:56;;;;;;;11.05;5.28;;;-5.70;99.90;;;;;;5071675;28;20169;-70
2022/03/02 03:25:23;;;;;;;9.63;5.75;;;-5.70;99.90;;;;;;5071638;28;20190;-68
2022/03/02 03:27:50;;;;;;;11.93;5.95;;;-5.80;99.90;;;;;;5070232;28;20225;-67
2022/03/02 03:30:19;;;;;;;9.93;5.43;;;-5.80;99.90;;;;;;5071425;28;20212;-68
2022/03/02 03:32:46;;;;;;;12.30;5.88;;;-5.80;99.90;;;;;;5071462;28;20225;-67
2022/03/02 03:35:13;;;;;;;10.63;5.40;;;-5.70;99.90;;;;;;5070185;28;20165;-69
2022/03/02 03:37:40;;;;;;;12.75;4.82;;;-5.70;99.90;;;;;;5070152;28;20544;-68
2022/03/02 03:40:08;;;;;;;9.43;5.65;;;-5.70;99.90;;;;;;5069910;28;20169;-67
2022/03/02 03:42:34;;;;;;;11.20;5.45;;;-5.80;99.90;;;;;;5071221;28;20181;-69
2022/03/02 03:45:01;;;;;;;7.32;4.43;;;-5.80;99.90;;;;;;5069756;28;20195;-68
2022/03/02 03:47:27;;;;;;;12.93;4.95;;;-5.70;99.90;;;;;;5069757;28;20200;-67
2022/03/02 03:49:53;;;;;;;10.80;5.25;;;-5.70;99.90;;;;;;5069878;28;20172;-68
2022/03/02 03:52:19;;;;;;;12.02;5.15;;;-5.80;99.90;;;;;;5069737;28;20161;-67
2022/03/02 03:54:45;;;;;;;9.75;4.90;;;-5.80;99.90;;;;;;5069616;28;20169;-68
2022/03/02 03:57:10;;;;;;;8.43;4.97;;;-5.80;99.90;;;;;;5069633;28;20224;-67
2022/03/02 03:59:36;;;;;;;7.97;4.22;;;-5.80;99.90;;;;;;5073045;28;20191;-69
2022/03/02 04:02:02;;;;;;;10.98;4.95;;;-5.80;99.90;;;;;;5089578;28;20243;-68
2022/03/02 04:04:28;;;;;;;7.32;4.43;;;-5.80;99.90;;;;;;5090757;28;20222;-67
2022/03/02 04:06:54;;;;;;;5.47;3.42;;;-5.80;99.90;;;;;;5070345;28;20212;-67
2022/03/02 04:09:20;;;;;;;7.50;4.30;;;-5.80;99.90;;;;;;5069409;28;20199;-67
2022/03/02 04:11:46;;;;;;;4.63;3.50;;;-5.70;99.90;;;;;;5070633;28;20200;-67
2022/03/02 04:14:12;;;;;;;4.13;2.83;;;-5.70;99.90;;;;;;5070532;28;20157;-67
2022/03/02 04:16:38;;;;;;;5.50;3.05;;;-5.70;99.90;;;;;;5069423;28;20173;-68
2022/03/02 04:19:04;;;;;;;4.40;3.13;;;-5.30;99.90;;;;;;5070601;28;20164;-67
2022/03/02 04:21:32;;;;;;;8.50;5.28;;;-4.60;99.90;;;;;;5070434;28;20200;-69
2022/03/02 04:23:58;;;;;;;7.32;3.58;;;-4.40;99.90;;;;;;5069148;28;20172;-67
2022/03/02 04:26:24;;;;;;;7.68;3.67;;;-4.50;99.90;;;;;;5070215;28;20221;-67
2022/03/02 04:28:50;;;;;;;5.15;2.88;;;-4.70;99.90;;;;;;5069098;28;20255;-67
2022/03/02 04:31:16;;;;;;;6.13;3.08;;;-4.90;99.90;;;;;;5070314;28;20189;-67
2022/03/02 04:33:42;;;;;;;5.53;3.53;;;-4.80;99.90;;;;;;5070150;28;20160;-67
2022/03/02 04:36:09;;;;;;;4.40;2.55;;;-5.00;99.90;;;;;;5069987;28;20179;-69
2022/03/02 04:38:36;;;;;;;3.58;2.55;;;-5.00;99.90;;;;;;5070092;28;20203;-67
2022/03/02 04:41:01;;;;;;;2.60;2.13;;;-5.20;99.90;;;;;;5069946;28;20186;-67
2022/03/02 04:43:28;;;;;;;12.07;2.85;;;-5.30;99.90;;;;;;5069649;28;20153;-68
2022/03/02 04:45:54;;;;;;;4.50;2.83;;;-5.40;99.90;;;;;;5069826;28;20169;-67
2022/03/02 04:48:20;;;;;;;8.48;2.25;;;-5.40;99.90;;;;;;5069581;28;20258;-68
2022/03/02 04:50:46;;;;;;;10.02;2.90;;;-5.50;99.90;;;;;;5069845;28;20177;-68
2022/03/02 04:53:14;;;;;;;6.90;2.58;;;-5.60;99.90;;;;;;5069604;28;20212;-68
2022/03/02 04:55:40;;;;;;;7.82;2.92;;;-5.60;99.90;;;;;;5080709;28;20219;-68
2022/03/02 04:58:06;;;;;;;7.72;2.92;;;-5.70;99.90;;;;;;5088349;28;20191;-68
2022/03/02 05:00:36;;;;;;;7.10;2.83;;;-5.60;99.90;;;;;;5089475;28;20179;-68
2022/03/02 05:03:04;;;;;;;4.93;3.35;;;-5.60;99.90;;;;;;5089459;28;20246;-68
2022/03/02 05:05:36;;;;;;;5.90;3.40;;;-5.50;99.90;;;;;;5088282;28;20240;-68
2022/03/02 05:08:02;;;;;;;10.23;3.67;;;-5.50;99.90;;;;;;5081556;28;20212;-67
2022/03/02 05:10:29;;;;;;;16.92;4.00;;;-5.50;99.90;;;;;;5089439;28;20180;-68
2022/03/02 05:12:55;;;;;;;9.63;4.72;;;-5.60;99.90;;;;;;5084956;28;20172;-68
2022/03/02 05:15:22;;;;;;;10.32;4.45;;;-5.70;99.90;;;;;;5089490;28;20159;-69
2022/03/02 05:17:49;;;;;;;8.83;4.90;;;-5.80;99.90;;;;;;5089412;28;20164;-67
2022/03/02 05:20:17;;;;;;;22.60;5.85;;;-5.90;99.90;;;;;;5071326;28;20184;-68
2022/03/02 05:22:43;;;;;;;9.45;4.55;;;-6.00;99.90;;;;;;5069235;28;20160;-68
2022/03/02 05:25:12;;;;;;;7.63;4.60;;;-6.10;99.90;;;;;;5069096;28;20210;-68
2022/03/02 05:27:42;;;;;;;13.70;4.40;;;-6.10;99.90;;;;;;5069358;28;20237;-68
2022/03/02 05:30:10;;;;;;;9.35;4.43;;;-6.10;99.90;;;;;;5069114;28;20606;-68
2022/03/02 05:32:37;;;;;;;6.47;3.67;;;-6.20;99.90;;;;;;5069181;28;20188;-68
2022/03/02 05:35:04;;;;;;;17.05;4.25;;;-6.20;99.90;;;;;;5069118;28;20164;-68
2022/03/02 05:37:30;;;;;;;7.43;3.90;;;-6.20;99.90;;;;;;5068934;28;20176;-68
2022/03/02 05:39:56;;;;;;;9.00;4.75;;;-6.20;99.90;;;;;;5083256;28;20187;-69
2022/03/02 05:42:22;;;;;;;5.13;3.55;;;-6.20;99.90;;;;;;5088961;28;20156;-68
2022/03/02 05:44:49;;;;;;;7.53;4.05;;;-6.30;99.90;;;;;;5089087;28;20182;-69
2022/03/02 05:47:15;;;;;;;12.20;4.70;;;-6.30;99.90;;;;;;5087304;28;20223;-68
2022/03/02 05:49:41;;;;;;;8.57;4.70;;;-6.30;99.90;;;;;;5076465;28;20200;-68
2022/03/02 05:52:07;;;;;;;11.13;4.45;;;-6.20;99.90;;;;;;5068708;28;20153;-68
2022/03/02 05:54:33;;;;;;;8.68;4.88;;;-6.20;99.90;;;;;;5068846;28;20216;-68
2022/03/02 05:56:59;;;;;;;7.77;5.23;;;-6.20;99.90;;;;;;5068840;28;20251;-68
2022/03/02 05:59:24;;;;;;;10.70;6.10;;;-6.20;99.90;;;;;;5069849;28;20208;-69
2022/03/02 06:01:50;;;;;;;9.10;5.47;;;-6.20;99.90;;;;;;5068369;28;20188;-68
2022/03/02 06:04:16;;;;;;;6.88;4.28;;;-6.10;99.90;;;;;;5067346;28;20235;-68
2022/03/02 06:06:42;;;;;;;9.27;4.55;;;-6.10;99.90;;;;;;5068272;28;20189;-68
2022/03/02 06:09:10;;;;;;;16.67;6.57;;;-6.00;99.90;;;;;;5068471;28;20734;-68
2022/03/02 06:11:38;;;;;;;9.63;4.95;;;-5.90;99.90;;;;;;5068021;28;20149;-68
2022/03/02 06:14:05;;;;;;;8.05;5.57;;;-5.90;99.90;;;;;;5071760;28;20168;-68
2022/03/02 06:16:31;;;;;;;12.40;5.63;;;-5.70;99.90;;;;;;5088483;28;20156;-68
2022/03/02 06:18:57;;;;;;;8.38;5.43;;;-5.50;99.90;;;;;;5088588;28;20256;-68
2022/03/02 06:21:32;;;;;;;12.82;5.60;;;-5.40;99.90;;;;;;5092244;28;20171;-68
2022/03/02 06:23:58;;;;;;;9.13;6.18;;;-5.30;99.90;;;;;;5092680;28;20250;-68
2022/03/02 06:26:26;;;;;;;14.88;6.55;;;-5.20;99.90;;;;;;5092263;28;20299;-68
2022/03/02 06:28:52;;;;;;;16.80;6.43;;;-5.10;99.90;;;;;;5092078;28;20188;-67
2022/03/02 06:31:19;;;;;;;6.25;4.80;;;-4.90;99.90;;;;;;5092068;28;20157;-68
2022/03/02 06:33:46;;;;;;;20.65;5.88;;;-4.90;99.90;;;;;;5091948;28;20224;-68
2022/03/02 06:36:14;;;;;;;21.83;6.82;;;-4.60;99.90;;;;;;5090323;28;20164;-68
2022/03/02 06:38:40;;;;;;;11.18;6.03;;;-4.40;99.90;;;;;;5090712;28;20198;-69
2022/03/02 06:41:44;;;;;;;12.50;5.82;;;-4.10;99.90;;;;;;5092085;28;20160;-67
2022/03/02 06:44:54;;;;;;;6.28;4.70;;;-3.90;99.90;;;;;;5086994;28;20191;-69
2022/03/02 06:47:25;;;;;;;9.60;5.88;;;-3.50;99.90;;;;;;5089573;28;20348;-68
2022/03/02 06:50:07;;;;;;;11.27;6.07;;;-2.80;99.90;;;;;;5088842;28;20204;-67
2022/03/02 06:52:45;;;;;;;15.38;5.55;;;-2.70;99.90;;;;;;5089869;28;20164;-69
2022/03/02 06:55:16;;;;;;;9.27;6.60;;;-2.70;99.90;;;;;;5089596;28;20164;-68
2022/03/02 06:57:46;;;;;;;11.93;5.53;;;-2.50;99.90;;;;;;5089460;28;20200;-68
2022/03/02 07:00:16;;;;;;;13.00;5.60;;;-2.50;99.90;;;;;;5087392;28;20190;-68
2022/03/02 07:02:57;;;;;;;12.23;5.72;;;-2.20;99.90;;;;;;5071625;28;20731;-68
2022/03/02 07:05:23;;;;;;;9.50;5.28;;;-2.10;99.90;;;;;;5089119;28;20172;-68
2022/03/02 07:07:49;;;;;;;15.70;5.30;;;-2.00;99.90;;;;;;5089652;28;20203;-68
2022/03/02 07:10:15;;;;;;;9.88;4.43;;;-2.00;99.90;;;;;;5089293;28;20245;-68
2022/03/02 07:12:42;;;;;;;8.80;5.15;;;-2.00;99.90;;;;;;5089576;28;20168;-68
2022/03/02 07:15:08;;;;;;;12.48;5.97;;;-1.90;99.90;;;;;;5072179;28;20172;-69
2022/03/02 07:17:35;;;;;;;7.25;4.43;;;-1.80;99.90;;;;;;5072503;28;20207;-68
2022/03/02 07:20:04;;;;;;;8.40;4.70;;;-1.60;99.90;;;;;;5089119;28;20168;-68
2022/03/02 07:22:36;;;;;;;17.15;5.20;;;-1.50;99.90;;;;;;5083191;28;20188;-69
2022/03/02 07:25:15;;;;;;;13.40;5.18;;;-1.50;99.90;;;;;;5071178;28;20712;-69
2022/03/02 07:27:41;;;;;;;20.63;6.47;;;-1.40;99.90;;;;;;5071227;28;20208;-69
2022/03/02 07:30:08;;;;;;;12.98;6.45;;;-0.90;99.90;;;;;;5071851;28;20168;-68
2022/03/02 07:32:37;;;;;;;9.70;5.78;;;-0.80;99.90;;;;;;5071288;28;20161;-67
2022/03/02 07:35:06;;;;;;;8.52;4.80;;;-0.50;99.90;;;;;;5071353;28;20152;-68
2022/03/02 07:37:33;;;;;;;11.07;4.30;;;-0.50;99.90;;;;;;5083886;28;20219;-68
2022/03/02 07:39:59;;;;;;;10.68;5.97;;;-0.50;99.90;;;;;;5084026;28;20165;-68
2022/03/02 07:42:25;;;;;;;7.30;4.50;;;-0.40;99.90;;;;;;5071205;28;20153;-68
2022/03/02 07:44:52;;;;;;;10.93;5.57;;;-0.20;99.90;;;;;;5071221;28;20177;-68
2022/03/02 07:47:19;;;;;;;13.02;5.15;;;0.10;99.90;;;;;;5080107;28;20232;-68
2022/03/02 07:49:46;;;;;;;12.10;4.70;;;0.30;99.90;;;;;;5079130;28;20218;-68
2022/03/02 07:52:14;;;;;;;10.93;5.28;;;0.50;99.90;;;;;;5087765;28;20183;-68
2022/03/02 07:54:41;;;;;;;9.25;4.47;;;1.00;99.90;;;;;;5079876;28;20540;-68
2022/03/02 07:57:10;;;;;;;12.20;5.60;;;1.10;99.90;;;;;;5071109;28;20164;-68
2022/03/02 07:59:41;;;;;;;8.80;4.47;;;1.70;99.90;;;;;;5072266;28;20184;-68
2022/03/02 08:02:09;;;;;;;8.05;5.10;;;3.20;99.90;;;;;;5088732;28;20190;-68
2022/03/02 08:04:36;;;;;;;12.80;5.15;;;4.00;99.90;;;;;;5070349;28;20259;-69
2022/03/02 08:07:04;;;;;;;11.15;5.38;;;6.60;98.70;;;;;;5071390;28;20192;-69
2022/03/02 08:09:31;;;;;;;12.10;5.30;;;9.60;94.80;;;;;;5085252;28;20259;-68
2022/03/02 08:11:59;;;;;;;10.77;5.72;;;11.80;91.20;;;;;;5070805;28;20184;-67
2022/03/02 08:14:26;;;;;;;13.45;6.40;;;13.20;90.00;;;;;;5071661;28;20196;-67
2022/03/02 08:16:52;;;;;;;7.70;5.15;;;13.80;87.20;;;;;;5075406;28;20191;-67
2022/03/02 08:19:19;;;;;;;9.27;5.38;;;14.80;84.50;;;;;;5090015;28;20198;-67
2022/03/02 08:21:51;;;;;;;13.13;5.35;;;14.30;83.30;;;;;;5086604;28;20180;-69
2022/03/02 08:24:18;;;;;;;11.65;5.35;;;14.20;82.30;;;;;;5082773;28;20196;-67
2022/03/02 08:26:49;;;;;;;9.30;4.45;;;15.00;81.80;;;;;;5088381;28;20219;-67
2022/03/02 08:29:16;;;;;;;7.38;4.60;;;16.50;78.10;;;;;;5087536;28;20222;-67
2022/03/02 08:31:43;;;;;;;9.18;4.63;;;17.20;75.40;;;;;;5085509;28;20218;-68
2022/03/02 08:34:09;;;;;;;15.38;4.75;;;16.60;76.10;;;;;;5070232;28;20593;-67
2022/03/02 08:36:36;;;;;;;6.18;4.15;;;16.40;75.20;;;;;;5069514;28;20200;-66
2022/03/02 08:39:11;;;;;;;9.48;3.90;;;15.70;77.40;;;;;;5068752;28;20200;-67
2022/03/02 08:41:41;;;;;;;6.13;3.85;;;17.00;73.60;;;;;;5073377;28;20181;-67
2022/03/02 08:44:08;;;;;;;5.38;4.15;;;17.20;71.40;;;;;;5087673;28;20207;-68
2022/03/02 08:46:34;;;;;;;7.43;4.05;;;16.40;71.80;;;;;;5089418;28;20180;-68
2022/03/02 08:49:01;;;;;;;7.45;3.90;;;15.90;71.80;;;;;;5082213;28;20203;-69
2022/03/02 08:51:28;;;;;;;5.95;4.38;;;15.60;74.10;;;;;;5069305;28;20149;-69
2022/03/02 08:53:58;;;;;;;5.40;4.03;;;15.30;73.40;;;;;;5069832;28;20167;-70
2022/03/02 08:56:25;;;;;;;6.18;3.72;;;14.80;74.80;;;;;;5074997;28;20172;-68
2022/03/02 08:58:54;;;;;;;6.68;4.00;;;14.80;74.10;;;;;;5089317;28;20191;-68
2022/03/02 09:01:21;;;;;;;7.30;3.60;;;15.60;74.70;;;;;;5086334;28;20177;-68
2022/03/02 09:03:51;;;;;;;6.38;4.00;;;15.60;73.30;;;;;;5087888;28;20227;-68
2022/03/02 09:06:21;;;;;;;8.75;4.50;;;15.30;73.10;;;;;;5089599;28;20152;-69
2022/03/02 09:08:48;;;;;;;6.90;3.92;;;15.50;74.40;;;;;;5088861;28;20180;-69
2022/03/02 09:11:14;;;;;;;9.95;3.83;;;16.40;71.50;;;;;;5073207;28;20176;-70
2022/03/02 09:13:40;;;;;;;7.95;4.28;;;16.10;71.60;;;;;;5069013;28;20149;-69
2022/03/02 09:16:08;;;;;;;8.18;3.90;;;16.30;72.00;;;;;;5067968;28;20173;-68
2022/03/02 09:18:34;;;;;;;8.95;4.22;;;16.20;73.60;;;;;;5068787;28;20266;-68
2022/03/02 09:21:03;;;;;;;5.25;3.72;;;16.20;72.70;;;;;;5077719;28;20191;-68
2022/03/02 09:23:31;;;;;;;8.75;4.43;;;14.80;73.20;;;;;;5074701;28;20179;-68
2022/03/02 09:26:06;;;;;;;6.85;3.83;;;15.10;72.10;;;;;;5068944;28;20153;-67
2022/03/02 09:28:38;;;;;;;7.07;3.92;;;14.70;73.00;;;;;;5067209;28;20242;-67
2022/03/02 09:31:07;;;;;;;6.15;3.88;;;15.20;74.00;;;;;;5068933;28;20161;-68
2022/03/02 09:33:34;;;;;;;5.05;3.97;;;14.80;71.80;;;;;;5068861;28;20199;-67
2022/03/02 09:36:09;;;;;;;6.30;4.43;;;14.50;73.60;;;;;;5069008;28;20157;-67
2022/03/02 09:38:36;;;;;;;5.22;3.20;;;14.80;72.10;;;;;;5067154;28;20192;-68
2022/03/02 09:41:05;;;;;;;6.80;4.53;;;14.30;71.80;;;;;;5069088;28;20157;-68
2022/03/02 09:43:33;;;;;;;6.47;4.35;;;14.60;73.60;;;;;;5068608;28;20183;-67
2022/03/02 09:46:06;;;;;;;6.13;3.80;;;14.30;72.50;;;;;;5069066;28;20195;-68
2022/03/02 09:48:41;;;;;;;5.22;3.55;;;14.80;74.20;;;;;;5068511;28;20311;-67
2022/03/02 09:51:08;;;;;;;6.22;4.10;;;14.50;71.90;;;;;;5069019;28;20187;-67
2022/03/02 09:53:36;;;;;;;7.80;3.83;;;14.50;70.50;;;;;;5068214;28;20228;-66
2022/03/02 09:56:04;;;;;;;9.07;4.05;;;14.70;72.60;;;;;;5068875;28;20186;-67
2022/03/02 09:58:36;;;;;;;4.55;3.72;;;14.10;71.00;;;;;;5068250;28;20196;-67
2022/03/02 10:01:02;;;;;;;5.03;3.15;;;13.60;71.20;;;;;;5073749;28;20176;-67
2022/03/02 10:03:36;;;;;;;5.75;3.90;;;13.40;71.50;;;;;;5088361;28;20238;-67
2022/03/02 10:06:05;;;;;;;7.05;3.63;;;13.60;71.20;;;;;;5079261;28;20258;-67
2022/03/02 10:08:35;;;;;;;8.05;4.32;;;14.40;73.40;;;;;;5071083;28;20243;-67
2022/03/02 10:11:06;;;;;;;11.32;5.05;;;14.80;70.50;;;;;;5079658;28;20243;-68
2022/03/02 10:13:34;;;;;;;8.15;5.18;;;14.50;72.60;;;;;;5073899;28;20172;-67
2022/03/02 10:16:06;;;;;;;9.43;5.78;;;13.50;74.60;;;;;;5068260;28;20585;-67
2022/03/02 10:18:36;;;;;;;11.10;6.45;;;13.30;74.20;;;;;;5087184;28;20196;-67
2022/03/02 10:21:04;;;;;;;9.85;4.95;;;14.00;77.10;;;;;;5088631;28;20252;-67
2022/03/02 10:23:41;;;;;;;13.43;6.72;;;15.10;71.40;;;;;;5088588;28;20157;-67
2022/03/02 10:26:16;;;;;;;12.18;6.70;;;15.30;70.60;;;;;;5075172;28;20175;-69
2022/03/02 10:28:44;;;;;;;13.48;6.22;;;14.20;72.00;;;;;;5068038;28;20229;-67
2022/03/02 10:31:30;;;;;;;15.50;5.90;;;13.90;72.20;;;;;;5067150;28;20192;-68
2022/03/02 10:34:01;;;;;;;8.18;5.18;;;12.60;72.40;;;;;;5068387;28;20156;-68
2022/03/02 10:36:30;;;;;;;13.18;6.07;;;13.40;75.30;;;;;;5066491;28;20169;-68
2022/03/02 10:39:06;;;;;;;17.27;6.18;;;14.00;71.70;;;;;;5068325;28;20282;-68
2022/03/02 10:41:37;;;;;;;7.00;4.78;;;13.80;71.80;;;;;;5068457;28;20172;-69
2022/03/02 10:44:16;;;;;;;10.98;5.10;;;13.60;70.90;;;;;;5068281;28;20176;-69
2022/03/02 10:46:49;;;;;;;15.02;5.28;;;14.00;73.30;;;;;;5067250;28;20187;-68
2022/03/02 10:49:21;;;;;;;9.05;5.20;;;15.20;69.30;;;;;;5068254;28;20556;-68
2022/03/02 10:51:48;;;;;;;10.57;5.40;;;15.30;69.80;;;;;;5068154;28;20165;-68
2022/03/02 10:54:18;;;;;;;10.57;5.10;;;15.50;70.00;;;;;;5068105;28;20163;-68
2022/03/02 10:56:44;;;;;;;8.88;5.35;;;15.00;71.10;;;;;;5067273;28;20157;-68
2022/03/02 10:59:16;;;;;;;12.05;5.90;;;15.50;72.00;;;;;;5068096;28;20224;-68
2022/03/02 11:01:46;;;;;;;12.75;5.85;;;14.80;68.00;;;;;;5068189;28;20248;-68
2022/03/02 11:04:13;;;;;;;11.00;5.90;;;14.90;70.10;;;;;;5067878;28;20217;-68
2022/03/02 11:06:40;;;;;;;10.15;4.70;;;15.70;67.20;;;;;;5069768;28;20195;-68
2022/03/02 11:09:06;;;;;;;11.40;4.90;;;15.60;66.80;;;;;;5070467;28;20534;-68
2022/03/02 11:11:36;;;;;;;12.45;6.13;;;15.80;71.10;;;;;;5071622;28;20153;-69
2022/03/02 11:14:03;;;;;;;9.95;6.05;;;14.90;68.40;;;;;;5071567;28;20206;-68
2022/03/02 11:16:29;;;;;;;13.13;5.43;;;14.50;71.10;;;;;;5070912;28;20214;-67
2022/03/02 11:18:56;;;;;;;9.32;4.97;;;14.70;68.80;;;;;;5071282;28;20193;-68
2022/03/02 11:21:28;;;;;;;9.27;5.20;;;14.20;71.10;;;;;;5071493;28;20165;-68
2022/03/02 11:23:57;;;;;;;9.60;4.63;;;14.10;70.80;;;;;;5071433;28;20173;-69
2022/03/02 11:26:26;;;;;;;11.32;5.00;;;14.50;70.90;;;;;;5082827;28;20199;-66
2022/03/02 11:29:13;;;;;;;11.55;5.53;;;14.20;69.60;;;;;;5087275;28;20221;-68
2022/03/02 11:31:47;;;;;;;7.05;4.50;;;14.90;67.80;;;;;;5088983;28;20182;-65
2022/03/02 11:34:23;;;;;;;7.22;4.75;;;15.00;66.30;;;;;;5087986;28;20728;-65
2022/03/02 11:36:55;;;;;;;9.82;5.22;;;14.80;67.80;;;;;;5084181;28;20191;-67
2022/03/02 11:39:23;;;;;;;7.70;4.95;;;14.80;66.20;;;;;;5083832;28;20251;-67
2022/03/02 11:41:58;;;;;;;8.02;4.57;;;14.70;66.90;;;;;;5071016;28;20180;-68
2022/03/02 11:44:39;;;;;;;7.10;4.35;;;14.00;68.60;;;;;;5075611;28;20687;-67
2022/03/02 11:47:15;;;;;;;8.70;4.78;;;14.50;67.00;;;;;;5080355;28;20204;-67
2022/03/02 11:49:44;;;;;;;7.90;4.53;;;14.80;65.90;;;;;;5070772;28;20226;-69
2022/03/02 11:52:16;;;;;;;7.50;4.60;;;14.50;68.10;;;;;;5070826;28;20193;-67
2022/03/02 11:54:48;;;;;;;11.25;4.75;;;14.60;67.10;;;;;;5070809;28;20191;-68
2022/03/02 11:57:18;;;;;;;8.18;4.70;;;14.40;68.10;;;;;;5070609;28;20182;-68
2022/03/02 11:59:45;;;;;;;7.97;3.88;;;14.70;68.70;;;;;;5070576;28;20198;-68
2022/03/02 12:02:21;;;;;;;11.23;5.22;;;14.70;65.40;;;;;;5087365;28;20179;-68
2022/03/02 12:05:07;;;;;;;6.38;4.25;;;15.00;65.60;;;;;;5081163;28;20337;-65
2022/03/02 12:07:48;;;;;;;7.78;4.43;;;14.90;66.50;;;;;;5070150;28;20203;-67
2022/03/02 12:10:21;;;;;;;10.98;4.50;;;14.30;66.30;;;;;;5069245;28;20200;-67
2022/03/02 12:12:49;;;;;;;7.20;4.43;;;13.90;68.50;;;;;;5088449;28;20175;-68
2022/03/02 12:15:16;;;;;;;11.10;5.15;;;14.40;68.40;;;;;;5077128;28;20168;-68
2022/03/02 12:17:42;;;;;;;5.38;3.42;;;14.70;68.30;;;;;;5069089;28;20613;-69
2022/03/02 12:20:15;;;;;;;7.38;4.70;;;14.50;65.10;;;;;;5074343;28;20232;-68
2022/03/02 12:22:55;;;;;;;6.78;3.42;;;14.70;65.30;;;;;;5070455;28;20618;-65
2022/03/02 12:25:25;;;;;;;9.57;4.75;;;15.30;67.50;;;;;;5074559;28;20168;-68
2022/03/02 12:28:03;;;;;;;7.13;4.05;;;15.00;64.50;;;;;;5089224;28;20218;-68
2022/03/02 12:30:35;;;;;;;7.40;3.67;;;14.90;62.70;;;;;;5086906;28;20283;-68
2022/03/02 12:33:03;;;;;;;5.25;3.47;;;14.00;66.50;;;;;;5070223;28;20159;-68
2022/03/02 12:35:29;;;;;;;4.25;3.15;;;14.40;64.50;;;;;;5080520;28;20177;-67
2022/03/02 12:37:59;;;;;;;10.10;3.60;;;13.90;63.60;;;;;;5079473;28;20520;-68
2022/03/02 12:40:31;;;;;;;6.78;3.85;;;11.90;68.30;;;;;;5079183;28;20196;-67
2022/03/02 12:42:58;;;;;;;4.90;3.55;;;11.00;70.20;;;;;;5088095;28;20152;-67
2022/03/02 12:45:25;;;;;;;12.35;3.47;;;10.30;70.70;;;;;;5071843;28;20208;-67
2022/03/02 12:47:52;;;;;;;11.35;4.18;;;9.90;73.80;;;;;;5089597;28;20278;-67